createdAt,value
2017-01-07T00:00:55.389Z,1032.98
2017-01-07T00:02:04.369Z,1032.94
2017-01-07T00:03:13.346Z,1032.94
2017-01-07T00:04:22.322Z,1032.9
2017-01-07T00:05:31.300Z,1032.93
2017-01-07T00:06:40.277Z,1032.94
2017-01-07T00:07:49.254Z,1032.95
2017-01-07T00:08:58.261Z,1032.99
2017-01-07T00:10:07.240Z,1032.94
2017-01-07T00:11:16.217Z,1032.95
2017-01-07T00:12:25.194Z,1032.9
2017-01-07T00:13:34.170Z,1032.84
2017-01-07T00:14:43.144Z,1032.81
2017-01-07T00:15:52.121Z,1032.75
2017-01-07T00:17:01.105Z,1032.77
2017-01-07T00:18:10.091Z,1032.77
2017-01-07T00:19:19.071Z,1032.7
2017-01-07T00:20:28.050Z,1032.74
2017-01-07T00:21:37.031Z,1032.7
2017-01-07T00:22:46.008Z,1032.7
2017-01-07T00:23:54.991Z,1032.65
2017-01-07T00:25:03.972Z,1032.61
2017-01-07T00:26:12.957Z,1032.61
2017-01-07T00:27:21.935Z,1032.61
2017-01-07T00:28:30.911Z,1032.59
2017-01-07T00:29:39.889Z,1032.54
2017-01-07T00:30:48.865Z,1032.51
2017-01-07T00:31:57.852Z,1032.57
2017-01-07T00:33:06.831Z,1032.56
2017-01-07T00:34:15.810Z,1032.57
2017-01-07T00:35:24.795Z,1032.54
2017-01-07T00:36:33.773Z,1032.54
2017-01-07T00:37:42.752Z,1032.52
2017-01-07T00:38:51.735Z,1032.55
2017-01-07T00:40:00.717Z,1032.51
2017-01-07T00:41:09.692Z,1032.51
2017-01-07T00:42:18.674Z,1032.43
2017-01-07T00:43:27.652Z,1032.39
2017-01-07T00:44:36.632Z,1032.4
2017-01-07T00:45:45.617Z,1032.38
2017-01-07T00:46:54.599Z,1032.38
2017-01-07T00:48:03.580Z,1032.39
2017-01-07T00:49:12.558Z,1032.34
2017-01-07T00:50:21.538Z,1032.28
2017-01-07T00:51:30.518Z,1032.25
2017-01-07T00:52:39.499Z,1032.2
2017-01-07T00:53:48.479Z,1032.17
2017-01-07T00:54:57.473Z,1032.15
2017-01-07T00:56:06.466Z,1032.1
2017-01-07T00:57:15.437Z,1032.13
2017-01-07T00:58:24.417Z,1032.12
2017-01-07T00:59:33.397Z,1032.13
2017-01-07T01:00:42.380Z,1032.2
2017-01-07T01:01:51.366Z,1032.14
2017-01-07T01:03:00.349Z,1032.08
2017-01-07T01:04:09.336Z,1032.12
2017-01-07T01:05:18.316Z,1032.08
2017-01-07T01:06:27.294Z,1032.1
2017-01-07T01:07:36.287Z,1032.09
2017-01-07T01:08:45.269Z,1032.1
2017-01-07T01:09:54.244Z,1032.07
2017-01-07T01:11:03.226Z,1032.13
2017-01-07T01:12:12.211Z,1032.11
2017-01-07T01:13:21.194Z,1032.13
2017-01-07T01:14:30.168Z,1032.08
2017-01-07T01:15:39.146Z,1032.14
2017-01-07T01:16:48.125Z,1032.06
2017-01-07T01:17:57.108Z,1032.06
2017-01-07T01:19:06.087Z,1032.06
2017-01-07T01:20:15.059Z,1032.01
2017-01-07T01:21:24.051Z,1031.98
2017-01-07T01:22:33.023Z,1031.95
2017-01-07T01:23:41.998Z,1031.92
2017-01-07T01:24:50.975Z,1031.92
2017-01-07T01:25:59.955Z,1031.97
2017-01-07T01:27:08.936Z,1031.92
2017-01-07T01:28:17.913Z,1031.9
2017-01-07T01:29:26.895Z,1031.88
2017-01-07T01:30:35.871Z,1031.88
2017-01-07T01:31:44.855Z,1031.9
2017-01-07T01:32:54.253Z,1031.85
2017-01-07T01:34:03.228Z,1031.81
2017-01-07T01:35:12.205Z,1031.83
2017-01-07T01:36:21.187Z,1031.82
2017-01-07T01:37:30.161Z,1031.8
2017-01-07T01:38:39.134Z,1031.76
2017-01-07T01:39:48.112Z,1031.68
2017-01-07T01:40:57.087Z,1031.75
2017-01-07T01:42:06.060Z,1031.75
2017-01-07T01:43:15.033Z,1031.75
2017-01-07T01:44:24.007Z,1031.71
2017-01-07T01:45:32.984Z,1031.75
2017-01-07T01:46:41.965Z,1031.69
2017-01-07T01:47:50.941Z,1031.72
2017-01-07T01:48:59.926Z,1031.71
2017-01-07T01:50:08.911Z,1031.64
2017-01-07T01:51:17.889Z,1031.61
2017-01-07T01:52:26.875Z,1031.58
2017-01-07T01:53:35.852Z,1031.61
2017-01-07T01:54:44.827Z,1031.61
2017-01-07T01:55:53.812Z,1031.52
2017-01-07T01:57:02.811Z,1031.51
2017-01-07T01:58:11.787Z,1031.53
2017-01-07T01:59:20.768Z,1031.53
2017-01-07T02:00:29.742Z,1031.56
2017-01-07T02:01:38.723Z,1031.57
2017-01-07T02:02:47.728Z,1031.55
2017-01-07T02:03:56.711Z,1031.54
2017-01-07T02:05:05.685Z,1031.53
2017-01-07T02:06:14.669Z,1031.54
2017-01-07T02:07:23.645Z,1031.55
2017-01-07T02:08:32.627Z,1031.56
2017-01-07T02:09:41.606Z,1031.55
2017-01-07T02:10:50.587Z,1031.56
2017-01-07T02:11:59.574Z,1031.53
2017-01-07T02:13:08.584Z,1031.56
2017-01-07T02:14:17.565Z,1031.53
2017-01-07T02:15:26.542Z,1031.59
2017-01-07T02:16:35.517Z,1031.55
2017-01-07T02:17:44.495Z,1031.6
2017-01-07T02:18:53.471Z,1031.55
2017-01-07T02:20:02.447Z,1031.51
2017-01-07T02:21:11.423Z,1031.53
2017-01-07T02:22:20.403Z,1031.5
2017-01-07T02:23:29.381Z,1031.45
2017-01-07T02:24:38.354Z,1031.5
2017-01-07T02:25:47.333Z,1031.46
2017-01-07T02:26:56.311Z,1031.41
2017-01-07T02:28:05.285Z,1031.48
2017-01-07T02:29:14.265Z,1031.49
2017-01-07T02:30:23.258Z,1031.46
2017-01-07T02:31:32.249Z,1031.42
2017-01-07T02:32:41.228Z,1031.39
2017-01-07T02:33:50.208Z,1031.42
2017-01-07T02:34:59.188Z,1031.37
2017-01-07T02:36:08.169Z,1031.41
2017-01-07T02:37:17.146Z,1031.33
2017-01-07T02:38:26.118Z,1031.38
2017-01-07T02:39:35.132Z,1031.41
2017-01-07T02:40:44.112Z,1031.38
2017-01-07T02:41:53.089Z,1031.34
2017-01-07T02:43:02.067Z,1031.37
2017-01-07T02:44:11.048Z,1031.37
2017-01-07T02:45:20.027Z,1031.34
2017-01-07T02:46:29.007Z,1031.29
2017-01-07T02:47:38.231Z,1031.25
2017-01-07T02:48:47.218Z,1031.23
2017-01-07T02:49:56.413Z,1031.19
2017-01-07T02:51:06.125Z,1031.17
2017-01-07T02:52:15.103Z,1031.13
2017-01-07T02:53:24.077Z,1031.17
2017-01-07T02:54:33.050Z,1031.16
2017-01-07T02:55:42.037Z,1031.18
2017-01-07T02:56:51.016Z,1031.18
2017-01-07T02:58:00.392Z,1031.17
2017-01-07T02:59:10.995Z,1031.14
2017-01-07T03:00:22.457Z,1031.13
2017-01-07T03:01:33.755Z,1031.12
2017-01-07T03:02:44.151Z,1031.07
2017-01-07T03:03:53.134Z,1031.06
2017-01-07T03:05:03.410Z,1031.09
2017-01-07T03:06:13.953Z,1031.08
2017-01-07T03:07:23.851Z,1031.17
2017-01-07T03:08:35.558Z,1031.18
2017-01-07T03:09:46.509Z,1031.15
2017-01-07T03:10:58.622Z,1031.2
2017-01-07T03:12:08.886Z,1031.1
2017-01-07T03:13:18.561Z,1031.12
2017-01-07T03:14:29.166Z,1031.07
2017-01-07T03:15:41.008Z,1031.08
2017-01-07T03:16:50.453Z,1031.08
2017-01-07T03:18:00.434Z,1031.1
2017-01-07T03:19:10.795Z,1031.05
2017-01-07T03:20:20.436Z,1031.08
2017-01-07T03:21:30.817Z,1031.08
2017-01-07T03:22:41.723Z,1031.04
2017-01-07T03:23:50.707Z,1031.08
2017-01-07T03:25:00.802Z,1031.1
2017-01-07T03:26:11.626Z,1031.05
2017-01-07T03:27:21.934Z,1031.03
2017-01-07T03:28:32.050Z,1031.13
2017-01-07T03:29:41.564Z,1031.13
2017-01-07T03:30:52.832Z,1031.09
2017-01-07T03:32:03.412Z,1031.03
2017-01-07T03:33:15.681Z,1030.97
2017-01-07T03:34:26.425Z,1031.01
2017-01-07T03:35:35.415Z,1030.97
2017-01-07T03:36:46.655Z,1030.92
2017-01-07T03:37:56.427Z,1030.85
2017-01-07T03:39:06.410Z,1030.88
2017-01-07T03:40:15.534Z,1030.84
2017-01-07T03:41:25.970Z,1030.79
2017-01-07T03:42:36.590Z,1030.76
2017-01-07T03:43:47.189Z,1030.79
2017-01-07T03:44:58.391Z,1030.83
2017-01-07T03:46:10.301Z,1030.73
2017-01-07T03:47:20.801Z,1030.75
2017-01-07T03:48:30.933Z,1030.74
2017-01-07T03:49:42.895Z,1030.79
2017-01-07T03:50:53.502Z,1030.75
2017-01-07T03:52:02.634Z,1030.79
2017-01-07T03:53:14.164Z,1030.76
2017-01-07T03:54:26.310Z,1030.79
2017-01-07T03:55:36.465Z,1030.8
2017-01-07T03:56:47.467Z,1030.71
2017-01-07T03:57:58.747Z,1030.69
2017-01-07T03:59:09.493Z,1030.65
2017-01-07T04:00:18.469Z,1030.58
2017-01-07T04:01:29.679Z,1030.53
2017-01-07T04:02:39.236Z,1030.47
2017-01-07T04:03:49.178Z,1030.42
2017-01-07T04:04:58.291Z,1030.35
2017-01-07T04:06:10.638Z,1030.34
2017-01-07T04:07:19.621Z,1030.38
2017-01-07T04:08:28.596Z,1030.32
2017-01-07T04:09:40.275Z,1030.21
2017-01-07T04:10:51.043Z,1030.12
2017-01-07T04:12:00.843Z,1030.06
2017-01-07T04:13:10.053Z,1030.03
2017-01-07T04:14:20.261Z,1029.93
2017-01-07T04:15:30.751Z,1029.93
2017-01-07T04:16:41.180Z,1029.9
2017-01-07T04:17:51.273Z,1029.88
2017-01-07T04:19:02.407Z,1029.83
2017-01-07T04:20:12.677Z,1029.83
2017-01-07T04:21:23.927Z,1029.72
2017-01-07T04:22:33.117Z,1029.69
2017-01-07T04:23:45.821Z,1029.7
2017-01-07T04:24:57.711Z,1029.62
2017-01-07T04:26:07.688Z,1029.64
2017-01-07T04:27:17.325Z,1029.63
2017-01-07T04:28:26.383Z,1029.61
2017-01-07T04:29:36.934Z,1029.61
2017-01-07T04:30:46.902Z,1029.57
2017-01-07T04:31:57.769Z,1029.59
2017-01-07T04:33:11.435Z,1029.6
2017-01-07T04:34:21.055Z,1029.58
2017-01-07T04:35:34.075Z,1029.59
2017-01-07T04:36:44.320Z,1029.61
2017-01-07T04:37:56.467Z,1029.55
2017-01-07T04:39:08.094Z,1029.59
2017-01-07T04:40:19.817Z,1029.58
2017-01-07T04:41:30.321Z,1029.61
2017-01-07T04:42:39.407Z,1029.59
2017-01-07T04:43:48.505Z,1029.59
2017-01-07T04:44:58.488Z,1029.6
2017-01-07T04:46:08.211Z,1029.6
2017-01-07T04:47:17.883Z,1029.59
2017-01-07T04:48:28.070Z,1029.56
2017-01-07T04:49:39.281Z,1029.49
2017-01-07T04:50:50.571Z,1029.47
2017-01-07T04:52:03.909Z,1029.43
2017-01-07T04:53:15.447Z,1029.44
2017-01-07T04:54:28.319Z,1029.39
2017-01-07T04:55:40.237Z,1029.42
2017-01-07T04:56:52.281Z,1029.41
2017-01-07T04:58:03.001Z,1029.38
2017-01-07T04:59:14.246Z,1029.35
2017-01-07T05:00:25.956Z,1029.35
2017-01-07T05:01:38.961Z,1029.32
2017-01-07T05:02:50.360Z,1029.34
2017-01-07T05:04:00.475Z,1029.29
2017-01-07T05:05:09.825Z,1029.25
2017-01-07T05:06:19.531Z,1029.19
2017-01-07T05:07:30.403Z,1029.18
2017-01-07T05:08:41.656Z,1029.18
2017-01-07T05:09:52.149Z,1029.17
2017-01-07T05:11:03.994Z,1029.12
2017-01-07T05:12:14.949Z,1029.07
2017-01-07T05:13:23.927Z,1029.02
2017-01-07T05:14:32.905Z,1029.01
2017-01-07T05:15:41.908Z,1028.98
2017-01-07T05:16:50.902Z,1028.99
2017-01-07T05:17:59.907Z,1029.03
2017-01-07T05:19:08.883Z,1029.04
2017-01-07T05:20:17.861Z,1029.08
2017-01-07T05:21:26.835Z,1029.05
2017-01-07T05:22:35.811Z,1029.03
2017-01-07T05:23:44.790Z,1028.93
2017-01-07T05:24:53.773Z,1028.96
2017-01-07T05:26:02.754Z,1028.89
2017-01-07T05:27:11.732Z,1028.9
2017-01-07T05:28:20.705Z,1028.89
2017-01-07T05:29:29.679Z,1028.9
2017-01-07T05:30:38.686Z,1028.8
2017-01-07T05:31:47.666Z,1028.83
2017-01-07T05:32:56.650Z,1028.72
2017-01-07T05:34:05.628Z,1028.68
2017-01-07T05:35:14.605Z,1028.62
2017-01-07T05:36:23.578Z,1028.57
2017-01-07T05:37:32.558Z,1028.52
2017-01-07T05:38:41.538Z,1028.51
2017-01-07T05:39:50.518Z,1028.44
2017-01-07T05:40:59.494Z,1028.49
2017-01-07T05:42:08.475Z,1028.54
2017-01-07T05:43:17.456Z,1028.6
2017-01-07T05:44:26.466Z,1028.61
2017-01-07T05:45:35.443Z,1028.65
2017-01-07T05:46:44.424Z,1028.68
2017-01-07T05:47:53.401Z,1028.73
2017-01-07T05:49:02.377Z,1028.72
2017-01-07T05:50:11.355Z,1028.76
2017-01-07T05:51:20.329Z,1028.79
2017-01-07T05:52:29.306Z,1028.79
2017-01-07T05:53:38.289Z,1028.84
2017-01-07T05:54:47.295Z,1028.78
2017-01-07T05:55:56.273Z,1028.78
2017-01-07T05:57:05.262Z,1028.69
2017-01-07T05:58:14.241Z,1028.6
2017-01-07T05:59:23.218Z,1028.54
2017-01-07T06:00:32.206Z,1028.53
2017-01-07T06:01:41.187Z,1028.5
2017-01-07T06:02:50.163Z,1028.51
2017-01-07T06:03:59.145Z,1028.5
2017-01-07T06:05:08.126Z,1028.54
2017-01-07T06:06:17.104Z,1028.51
2017-01-07T06:07:26.080Z,1028.42
2017-01-07T06:08:35.057Z,1028.38
2017-01-07T06:09:44.041Z,1028.33
2017-01-07T06:10:53.018Z,1028.24
2017-01-07T06:12:02.001Z,1028.17
2017-01-07T06:13:10.981Z,1028.08
2017-01-07T06:14:19.964Z,1028.04
2017-01-07T06:15:28.942Z,1027.97
2017-01-07T06:16:37.914Z,1027.95
2017-01-07T06:17:46.894Z,1027.94
2017-01-07T06:18:55.872Z,1027.95
2017-01-07T06:20:04.847Z,1027.96
2017-01-07T06:21:13.824Z,1027.97
2017-01-07T06:22:22.801Z,1027.95
2017-01-07T06:23:31.783Z,1028.01
2017-01-07T06:24:40.764Z,1028.06
2017-01-07T06:25:49.741Z,1028.11
2017-01-07T06:26:58.720Z,1028.08
2017-01-07T06:28:07.717Z,1028.1
2017-01-07T06:29:16.705Z,1028.09
2017-01-07T06:30:25.684Z,1028.07
2017-01-07T06:31:34.664Z,1028.05
2017-01-07T06:32:43.641Z,1028.08
2017-01-07T06:33:52.618Z,1028.04
2017-01-07T06:35:01.596Z,1028.06
2017-01-07T06:36:10.573Z,1028
2017-01-07T06:37:19.552Z,1027.98
2017-01-07T06:38:28.528Z,1028.03
2017-01-07T06:39:37.506Z,1028.01
2017-01-07T06:40:46.501Z,1028.04
2017-01-07T06:41:55.475Z,1028.05
2017-01-07T06:43:04.478Z,1027.97
2017-01-07T06:44:13.459Z,1027.99
2017-01-07T06:45:22.434Z,1027.97
2017-01-07T06:46:31.436Z,1028.03
2017-01-07T06:47:40.425Z,1027.99
2017-01-07T06:48:49.401Z,1028.02
2017-01-07T06:49:58.385Z,1028
2017-01-07T06:51:07.381Z,1028.01
2017-01-07T06:52:16.360Z,1028.01
2017-01-07T06:53:25.339Z,1028.06
2017-01-07T06:54:34.342Z,1028.05
2017-01-07T06:55:43.319Z,1028.04
2017-01-07T06:56:52.297Z,1028.08
2017-01-07T06:58:01.274Z,1028.11
2017-01-07T06:59:10.251Z,1028.07
2017-01-07T07:00:19.226Z,1028.09
2017-01-07T07:01:28.200Z,1028.01
2017-01-07T07:02:37.176Z,1028
2017-01-07T07:03:46.150Z,1027.97
2017-01-07T07:04:55.127Z,1027.93
2017-01-07T07:06:04.110Z,1027.95
2017-01-07T07:07:13.088Z,1027.99
2017-01-07T07:08:22.067Z,1027.98
2017-01-07T07:09:31.041Z,1027.89
2017-01-07T07:10:40.019Z,1027.9
2017-01-07T07:11:48.999Z,1027.93
2017-01-07T07:12:57.984Z,1027.92
2017-01-07T07:14:06.960Z,1027.9
2017-01-07T07:15:15.937Z,1027.87
2017-01-07T07:16:24.914Z,1027.84
2017-01-07T07:17:33.891Z,1027.77
2017-01-07T07:18:42.870Z,1027.79
2017-01-07T07:19:51.842Z,1027.71
2017-01-07T07:21:00.824Z,1027.69
2017-01-07T07:22:09.801Z,1027.66
2017-01-07T07:23:18.779Z,1027.6
2017-01-07T07:24:27.754Z,1027.63
2017-01-07T07:25:36.735Z,1027.61
2017-01-07T07:26:45.710Z,1027.53
2017-01-07T07:27:54.697Z,1027.54
2017-01-07T07:29:03.678Z,1027.57
2017-01-07T07:30:12.651Z,1027.54
2017-01-07T07:31:21.631Z,1027.6
2017-01-07T07:32:30.606Z,1027.61
2017-01-07T07:33:39.585Z,1027.59
2017-01-07T07:34:48.569Z,1027.55
2017-01-07T07:35:57.544Z,1027.64
2017-01-07T07:37:06.529Z,1027.65
2017-01-07T07:38:15.531Z,1027.63
2017-01-07T07:39:24.505Z,1027.7
2017-01-07T07:40:33.481Z,1027.64
2017-01-07T07:41:42.470Z,1027.6
2017-01-07T07:42:51.456Z,1027.62
2017-01-07T07:44:00.435Z,1027.63
2017-01-07T07:45:09.411Z,1027.62
2017-01-07T07:46:18.387Z,1027.6
2017-01-07T07:47:27.364Z,1027.6
2017-01-07T07:48:36.345Z,1027.57
2017-01-07T07:49:45.322Z,1027.62
2017-01-07T07:50:54.323Z,1027.58
2017-01-07T07:52:03.318Z,1027.55
2017-01-07T07:53:12.289Z,1027.52
2017-01-07T07:54:21.264Z,1027.45
2017-01-07T07:55:30.240Z,1027.5
2017-01-07T07:56:39.217Z,1027.51
2017-01-07T07:57:48.212Z,1027.51
2017-01-07T07:58:57.186Z,1027.51
2017-01-07T08:00:06.166Z,1027.54
2017-01-07T08:01:15.140Z,1027.48
2017-01-07T08:02:24.117Z,1027.44
2017-01-07T08:03:33.092Z,1027.4
2017-01-07T08:04:42.069Z,1027.36
2017-01-07T08:05:51.050Z,1027.32
2017-01-07T08:07:00.031Z,1027.33
2017-01-07T08:08:09.016Z,1027.29
2017-01-07T08:09:17.992Z,1027.28
2017-01-07T08:10:26.994Z,1027.32
2017-01-07T08:11:35.977Z,1027.3
2017-01-07T08:12:44.956Z,1027.31
2017-01-07T08:13:53.937Z,1027.32
2017-01-07T08:15:02.916Z,1027.29
2017-01-07T08:16:11.898Z,1027.3
2017-01-07T08:17:20.879Z,1027.27
2017-01-07T08:18:29.857Z,1027.28
2017-01-07T08:19:38.833Z,1027.25
2017-01-07T08:20:47.811Z,1027.25
2017-01-07T08:21:56.794Z,1027.29
2017-01-07T08:23:05.781Z,1027.3
2017-01-07T08:24:14.765Z,1027.22
2017-01-07T08:25:23.744Z,1027.27
2017-01-07T08:26:32.722Z,1027.21
2017-01-07T08:27:41.696Z,1027.23
2017-01-07T08:28:50.673Z,1027.24
2017-01-07T08:29:59.650Z,1027.22
2017-01-07T08:31:08.631Z,1027.17
2017-01-07T08:32:17.609Z,1027.16
2017-01-07T08:33:26.589Z,1027.13
2017-01-07T08:34:35.572Z,1027.13
2017-01-07T08:35:44.558Z,1027.13
2017-01-07T08:36:53.536Z,1027.03
2017-01-07T08:38:02.518Z,1027.06
2017-01-07T08:39:11.501Z,1027.02
2017-01-07T08:40:20.485Z,1026.97
2017-01-07T08:41:29.461Z,1026.98
2017-01-07T08:42:38.444Z,1026.98
2017-01-07T08:43:47.419Z,1026.92
2017-01-07T08:44:56.394Z,1026.96
2017-01-07T08:46:05.392Z,1026.89
2017-01-07T08:47:14.375Z,1026.89
2017-01-07T08:48:23.354Z,1026.86
2017-01-07T08:49:32.331Z,1026.87
2017-01-07T08:50:41.309Z,1026.88
2017-01-07T08:51:50.286Z,1026.96
2017-01-07T08:52:59.271Z,1026.97
2017-01-07T08:54:08.247Z,1026.99
2017-01-07T08:55:17.226Z,1026.97
2017-01-07T08:56:26.204Z,1026.99
2017-01-07T08:57:35.188Z,1026.93
2017-01-07T08:58:44.169Z,1026.95
2017-01-07T08:59:53.558Z,1026.98
2017-01-07T09:01:02.543Z,1026.97
2017-01-07T09:02:11.525Z,1027.03
2017-01-07T09:03:20.502Z,1027.05
2017-01-07T09:04:29.479Z,1027.08
2017-01-07T09:05:38.456Z,1027.13
2017-01-07T09:06:47.431Z,1027.08
2017-01-07T09:07:56.406Z,1027.08
2017-01-07T09:09:05.385Z,1027.09
2017-01-07T09:10:14.368Z,1027.09
2017-01-07T09:11:23.348Z,1027.07
2017-01-07T09:12:32.331Z,1027.03
2017-01-07T09:13:41.321Z,1027.02
2017-01-07T09:14:50.296Z,1026.95
2017-01-07T09:15:59.306Z,1026.99
2017-01-07T09:17:08.286Z,1027.01
2017-01-07T09:18:17.305Z,1026.97
2017-01-07T09:19:26.288Z,1026.96
2017-01-07T09:20:35.271Z,1026.95
2017-01-07T09:21:44.284Z,1026.93
2017-01-07T09:22:53.266Z,1026.92
2017-01-07T09:24:02.243Z,1026.91
2017-01-07T09:25:11.222Z,1026.89
2017-01-07T09:26:20.201Z,1026.85
2017-01-07T09:27:29.181Z,1026.86
2017-01-07T09:28:38.168Z,1026.81
2017-01-07T09:29:47.148Z,1026.74
2017-01-07T09:30:56.133Z,1026.77
2017-01-07T09:32:05.107Z,1026.78
2017-01-07T09:33:14.085Z,1026.76
2017-01-07T09:34:23.067Z,1026.68
2017-01-07T09:35:32.046Z,1026.6
2017-01-07T09:36:41.030Z,1026.53
2017-01-07T09:37:50.010Z,1026.55
2017-01-07T09:38:58.993Z,1026.53
2017-01-07T09:40:07.974Z,1026.47
2017-01-07T09:41:16.948Z,1026.46
2017-01-07T09:42:25.924Z,1026.41
2017-01-07T09:43:34.904Z,1026.36
2017-01-07T09:44:43.904Z,1026.33
2017-01-07T09:45:52.942Z,1026.34
2017-01-07T09:47:01.927Z,1026.26
2017-01-07T09:48:10.908Z,1026.24
2017-01-07T09:49:19.892Z,1026.16
2017-01-07T09:50:28.871Z,1026.18
2017-01-07T09:51:37.955Z,1026.16
2017-01-07T09:52:46.946Z,1026.16
2017-01-07T09:53:55.930Z,1026.15
2017-01-07T09:55:05.422Z,1026.1
2017-01-07T09:56:14.409Z,1026.01
2017-01-07T09:57:23.387Z,1025.96
2017-01-07T09:58:32.365Z,1026
2017-01-07T09:59:41.349Z,1025.96
2017-01-07T10:00:50.324Z,1025.94
2017-01-07T10:01:59.308Z,1025.97
2017-01-07T10:03:08.289Z,1026.06
2017-01-07T10:04:17.270Z,1025.91
2017-01-07T10:05:26.372Z,1025.92
2017-01-07T10:06:35.473Z,1025.91
2017-01-07T10:07:44.655Z,1025.9
2017-01-07T10:08:53.635Z,1025.92
2017-01-07T10:10:02.613Z,1025.87
2017-01-07T10:11:11.729Z,1025.85
2017-01-07T10:12:20.822Z,1025.85
2017-01-07T10:13:29.801Z,1025.88
2017-01-07T10:14:38.855Z,1025.87
2017-01-07T10:15:48.415Z,1025.8
2017-01-07T10:16:57.919Z,1025.82
2017-01-07T10:18:07.079Z,1025.72
2017-01-07T10:19:16.568Z,1025.69
2017-01-07T10:20:25.695Z,1025.66
2017-01-07T10:21:35.109Z,1025.67
2017-01-07T10:22:44.088Z,1025.66
2017-01-07T10:23:53.068Z,1025.61
2017-01-07T10:25:02.050Z,1025.6
2017-01-07T10:26:11.588Z,1025.54
2017-01-07T10:27:20.827Z,1025.56
2017-01-07T10:28:29.831Z,1025.55
2017-01-07T10:29:38.811Z,1025.52
2017-01-07T10:30:47.792Z,1025.5
2017-01-07T10:31:56.773Z,1025.52
2017-01-07T10:33:05.754Z,1025.55
2017-01-07T10:34:14.860Z,1025.49
2017-01-07T10:35:24.965Z,1025.4
2017-01-07T10:36:37.673Z,1025.4
2017-01-07T10:37:48.617Z,1025.31
2017-01-07T10:38:59.443Z,1025.33
2017-01-07T10:40:09.922Z,1025.33
2017-01-07T10:41:19.755Z,1025.27
2017-01-07T10:42:29.632Z,1025.26
2017-01-07T10:43:40.355Z,1025.19
2017-01-07T10:44:51.019Z,1025.16
2017-01-07T10:46:02.089Z,1025.19
2017-01-07T10:47:13.353Z,1025.19
2017-01-07T10:48:23.644Z,1025.24
2017-01-07T10:49:34.676Z,1025.21
2017-01-07T10:50:43.659Z,1025.23
2017-01-07T10:51:52.640Z,1025.21
2017-01-07T10:53:02.207Z,1025.21
2017-01-07T10:54:14.038Z,1025.24
2017-01-07T10:55:23.566Z,1025.14
2017-01-07T10:56:32.639Z,1025.21
2017-01-07T10:57:41.630Z,1025.12
2017-01-07T10:58:50.643Z,1025.18
2017-01-07T10:59:59.742Z,1025.13
2017-01-07T11:01:09.253Z,1025.1
2017-01-07T11:02:18.608Z,1025.09
2017-01-07T11:03:29.243Z,1025.06
2017-01-07T11:04:38.244Z,1025.06
2017-01-07T11:05:47.223Z,1025.04
2017-01-07T11:06:56.202Z,1024.99
2017-01-07T11:08:05.283Z,1024.96
2017-01-07T11:09:14.464Z,1024.99
2017-01-07T11:10:27.344Z,1024.87
2017-01-07T11:11:36.325Z,1024.91
2017-01-07T11:12:45.304Z,1024.93
2017-01-07T11:13:54.477Z,1024.91
2017-01-07T11:15:03.456Z,1024.97
2017-01-07T11:16:12.627Z,1024.92
2017-01-07T11:17:21.609Z,1024.88
2017-01-07T11:18:30.781Z,1024.83
2017-01-07T11:19:39.965Z,1024.83
2017-01-07T11:20:48.942Z,1024.78
2017-01-07T11:21:57.922Z,1024.68
2017-01-07T11:23:06.900Z,1024.67
2017-01-07T11:24:15.881Z,1024.63
2017-01-07T11:25:24.871Z,1024.61
2017-01-07T11:26:33.856Z,1024.61
2017-01-07T11:27:42.847Z,1024.49
2017-01-07T11:28:51.834Z,1024.46
2017-01-07T11:30:00.819Z,1024.49
2017-01-07T11:31:09.900Z,1024.39
2017-01-07T11:32:18.910Z,1024.37
2017-01-07T11:33:27.892Z,1024.36
2017-01-07T11:34:36.870Z,1024.31
2017-01-07T11:35:45.850Z,1024.28
2017-01-07T11:36:54.870Z,1024.23
2017-01-07T11:38:03.853Z,1024.19
2017-01-07T11:39:12.849Z,1024.15
2017-01-07T11:40:21.975Z,1024.12
2017-01-07T11:41:30.976Z,1024.15
2017-01-07T11:42:40.006Z,1024.17
2017-01-07T11:43:50.151Z,1024.25
2017-01-07T11:44:59.173Z,1024.16
2017-01-07T11:46:08.839Z,1024.13
2017-01-07T11:47:17.823Z,1024.12
2017-01-07T11:48:27.066Z,1024.09
2017-01-07T11:49:39.073Z,1024.04
2017-01-07T11:50:48.307Z,1024.08
2017-01-07T11:51:57.283Z,1024.06
2017-01-07T11:53:06.261Z,1024.09
2017-01-07T11:54:15.392Z,1024.07
2017-01-07T11:55:24.521Z,1024.04
2017-01-07T11:56:33.665Z,1024.1
2017-01-07T11:57:42.648Z,1024.07
2017-01-07T11:58:51.636Z,1024.05
2017-01-07T12:00:00.645Z,1024.03
2017-01-07T12:01:09.627Z,1024.06
2017-01-07T12:02:18.615Z,1024.02
2017-01-07T12:03:27.615Z,1024.02
2017-01-07T12:04:36.601Z,1023.96
2017-01-07T12:05:45.578Z,1023.93
2017-01-07T12:06:54.556Z,1023.93
2017-01-07T12:08:03.538Z,1023.93
2017-01-07T12:09:12.520Z,1023.89
2017-01-07T12:10:21.502Z,1023.84
2017-01-07T12:11:30.476Z,1023.84
2017-01-07T12:12:39.450Z,1023.81
2017-01-07T12:13:48.665Z,1023.8
2017-01-07T12:14:57.653Z,1023.83
2017-01-07T12:16:06.639Z,1023.82
2017-01-07T12:17:16.099Z,1023.75
2017-01-07T12:18:25.342Z,1023.72
2017-01-07T12:19:34.330Z,1023.73
2017-01-07T12:20:43.311Z,1023.66
2017-01-07T12:21:52.307Z,1023.68
2017-01-07T12:23:01.286Z,1023.56
2017-01-07T12:24:10.271Z,1023.52
2017-01-07T12:25:19.296Z,1023.54
2017-01-07T12:26:28.284Z,1023.52
2017-01-07T12:27:37.518Z,1023.55
2017-01-07T12:28:46.502Z,1023.56
2017-01-07T12:29:55.893Z,1023.52
2017-01-07T12:31:06.420Z,1023.52
2017-01-07T12:32:17.274Z,1023.47
2017-01-07T12:33:26.298Z,1023.44
2017-01-07T12:34:36.868Z,1023.38
2017-01-07T12:35:46.554Z,1023.38
2017-01-07T12:36:55.905Z,1023.43
2017-01-07T12:38:05.620Z,1023.39
2017-01-07T12:39:16.058Z,1023.4
2017-01-07T12:40:25.074Z,1023.43
2017-01-07T12:41:34.047Z,1023.36
2017-01-07T12:42:43.905Z,1023.38
2017-01-07T12:43:53.894Z,1023.35
2017-01-07T12:45:03.584Z,1023.29
2017-01-07T12:46:13.449Z,1023.28
2017-01-07T12:47:23.483Z,1023.29
2017-01-07T12:48:34.451Z,1023.3
2017-01-07T12:49:44.625Z,1023.29
2017-01-07T12:50:54.902Z,1023.26
2017-01-07T12:52:05.290Z,1023.22
2017-01-07T12:53:14.861Z,1023.18
2017-01-07T12:54:26.122Z,1023.1
2017-01-07T12:55:35.854Z,1023.1
2017-01-07T12:56:45.769Z,1023.06
2017-01-07T12:57:56.706Z,1022.99
2017-01-07T12:59:07.600Z,1022.97
2017-01-07T13:00:17.547Z,1022.93
2017-01-07T13:01:27.198Z,1022.86
2017-01-07T13:02:37.749Z,1022.9
2017-01-07T13:03:47.938Z,1022.86
2017-01-07T13:04:57.744Z,1022.91
2017-01-07T13:06:07.943Z,1022.92
2017-01-07T13:07:17.225Z,1022.91
2017-01-07T13:08:26.203Z,1022.84
2017-01-07T13:09:35.476Z,1022.89
2017-01-07T13:10:45.221Z,1022.76
2017-01-07T13:11:54.358Z,1022.75
2017-01-07T13:13:03.713Z,1022.72
2017-01-07T13:14:12.942Z,1022.7
2017-01-07T13:15:23.002Z,1022.69
2017-01-07T13:16:33.114Z,1022.7
2017-01-07T13:17:42.398Z,1022.64
2017-01-07T13:18:51.378Z,1022.63
2017-01-07T13:20:01.540Z,1022.64
2017-01-07T13:21:13.728Z,1022.52
2017-01-07T13:22:22.737Z,1022.52
2017-01-07T13:23:31.718Z,1022.42
2017-01-07T13:24:40.701Z,1022.41
2017-01-07T13:25:49.688Z,1022.36
2017-01-07T13:26:58.704Z,1022.35
2017-01-07T13:28:07.689Z,1022.31
2017-01-07T13:29:16.668Z,1022.38
2017-01-07T13:30:25.669Z,1022.29
2017-01-07T13:31:34.985Z,1022.31
2017-01-07T13:32:46.737Z,1022.27
2017-01-07T13:33:58.492Z,1022.27
2017-01-07T13:35:10.397Z,1022.26
2017-01-07T13:36:22.462Z,1022.25
2017-01-07T13:37:35.233Z,1022.26
2017-01-07T13:38:46.755Z,1022.21
2017-01-07T13:39:57.908Z,1022.22
2017-01-07T13:41:06.889Z,1022.24
2017-01-07T13:42:15.868Z,1022.2
2017-01-07T13:43:24.851Z,1022.23
2017-01-07T13:44:33.832Z,1022.22
2017-01-07T13:45:42.807Z,1022.2
2017-01-07T13:46:51.788Z,1022.16
2017-01-07T13:48:00.770Z,1022.21
2017-01-07T13:49:09.750Z,1022.14
2017-01-07T13:50:18.730Z,1022.16
2017-01-07T13:51:27.708Z,1022.14
2017-01-07T13:52:36.690Z,1022.07
2017-01-07T13:53:45.673Z,1022.06
2017-01-07T13:54:54.658Z,1022.08
2017-01-07T13:56:03.635Z,1022
2017-01-07T13:57:12.648Z,1021.94
2017-01-07T13:58:21.632Z,1021.95
2017-01-07T13:59:30.622Z,1021.95
2017-01-07T14:00:39.601Z,1021.91
2017-01-07T14:01:48.623Z,1021.87
2017-01-07T14:02:57.634Z,1021.83